createdAt,value
2022-11-05T00:02:01.847Z,100.00
2022-11-05T00:04:52.400Z,100.00
2022-11-05T00:07:38.757Z,100.00
2022-11-05T00:10:07.941Z,100.00
2022-11-05T00:12:55.401Z,100.00
2022-11-05T00:15:40.944Z,100.00
2022-11-05T00:18:08.764Z,100.00
2022-11-05T00:20:36.540Z,100.00
2022-11-05T00:23:22.261Z,100.00
2022-11-05T00:25:57.101Z,100.00
2022-11-05T00:28:29.048Z,100.00
2022-11-05T00:31:01.350Z,100.00
2022-11-05T00:33:29.102Z,100.00
2022-11-05T00:35:56.679Z,100.00
2022-11-05T00:38:24.785Z,100.00
2022-11-05T00:40:52.461Z,100.00
2022-11-05T00:43:34.141Z,100.00
2022-11-05T00:46:03.283Z,100.00
2022-11-05T00:48:48.443Z,100.00
2022-11-05T00:51:16.124Z,100.00
2022-11-05T00:53:43.847Z,100.00
2022-11-05T00:56:11.654Z,100.00
2022-11-05T00:58:39.428Z,100.00
2022-11-05T01:01:08.776Z,100.00
2022-11-05T01:03:37.143Z,100.00
2022-11-05T01:06:08.081Z,100.00
2022-11-05T01:08:35.809Z,100.00
2022-11-05T01:11:08.964Z,100.00
2022-11-05T01:13:36.702Z,100.00
2022-11-05T01:16:06.635Z,100.00
2022-11-05T01:18:37.791Z,100.00
2022-11-05T01:21:12.151Z,100.00
2022-11-05T01:23:40.186Z,100.00
2022-11-05T01:26:08.175Z,100.00
2022-11-05T01:28:35.927Z,100.00
2022-11-05T01:31:03.649Z,100.00
2022-11-05T01:33:31.673Z,100.00
2022-11-05T01:36:00.789Z,100.00
2022-11-05T01:38:28.622Z,100.00
2022-11-05T01:40:56.420Z,100.00
2022-11-05T01:43:24.696Z,100.00
2022-11-05T01:45:53.859Z,100.00
2022-11-05T01:48:22.817Z,100.00
2022-11-05T01:50:54.754Z,100.00
2022-11-05T01:53:27.874Z,100.00
2022-11-05T01:55:58.922Z,100.00
2022-11-05T01:58:30.824Z,100.00
2022-11-05T02:00:58.896Z,100.00
2022-11-05T02:03:27.643Z,100.00
2022-11-05T02:05:56.589Z,100.00
2022-11-05T02:08:30.383Z,100.00
2022-11-05T02:10:59.219Z,100.00
2022-11-05T02:13:26.951Z,100.00
2022-11-05T02:16:00.185Z,100.00
2022-11-05T02:18:36.011Z,100.00
2022-11-05T02:21:13.318Z,100.00
2022-11-05T02:23:54.826Z,100.00
2022-11-05T02:26:41.317Z,100.00
2022-11-05T02:29:37.477Z,100.00
2022-11-05T02:32:10.857Z,100.00
2022-11-05T02:34:44.665Z,100.00
2022-11-05T02:37:15.541Z,100.00
2022-11-05T02:39:48.262Z,100.00
2022-11-05T02:42:21.037Z,100.00
2022-11-05T02:44:52.986Z,100.00
2022-11-05T02:47:25.302Z,100.00
2022-11-05T02:49:58.293Z,100.00
2022-11-05T02:52:28.449Z,100.00
2022-11-05T02:55:00.809Z,100.00
2022-11-05T02:57:30.213Z,100.00
2022-11-05T03:00:01.989Z,100.00
2022-11-05T03:02:31.435Z,100.00
2022-11-05T03:04:59.734Z,100.00
2022-11-05T03:07:32.909Z,100.00
2022-11-05T03:10:11.646Z,100.00
2022-11-05T03:12:44.454Z,100.00
2022-11-05T03:15:17.785Z,100.00
2022-11-05T03:17:54.619Z,100.00
2022-11-05T03:20:25.162Z,100.00
2022-11-05T03:22:55.592Z,100.00
2022-11-05T03:25:25.649Z,100.00
2022-11-05T03:27:55.484Z,100.00
2022-11-05T03:30:24.921Z,100.00
2022-11-05T03:32:56.981Z,100.00
2022-11-05T03:35:28.218Z,100.00
2022-11-05T03:38:00.441Z,100.00
2022-11-05T03:40:30.752Z,100.00
2022-11-05T03:42:59.040Z,100.00
2022-11-05T03:45:33.761Z,100.00
2022-11-05T03:48:05.151Z,100.00
2022-11-05T03:50:41.073Z,100.00
2022-11-05T03:53:13.267Z,100.00
2022-11-05T03:55:45.670Z,100.00
2022-11-05T03:58:13.668Z,100.00
2022-11-05T04:00:41.628Z,100.00
2022-11-05T04:03:10.909Z,100.00
2022-11-05T04:05:41.215Z,100.00
2022-11-05T04:08:27.092Z,100.00
2022-11-05T04:11:12.614Z,100.00
2022-11-05T04:13:40.230Z,100.00
2022-11-05T04:16:25.570Z,100.00
2022-11-05T04:18:54.599Z,100.00
2022-11-05T04:21:39.940Z,100.00
2022-11-05T04:24:10.438Z,100.00
2022-11-05T04:26:39.263Z,100.00
2022-11-05T04:29:25.113Z,100.00
2022-11-05T04:31:53.395Z,100.00
2022-11-05T04:34:24.361Z,100.00
2022-11-05T04:36:53.174Z,100.00
2022-11-05T04:39:21.833Z,100.00
2022-11-05T04:41:49.556Z,100.00
2022-11-05T04:44:17.364Z,100.00
2022-11-05T04:46:45.101Z,100.00
2022-11-05T04:49:13.046Z,100.00
2022-11-05T04:51:42.453Z,100.00
2022-11-05T04:54:10.383Z,100.00
2022-11-05T04:56:38.302Z,100.00
2022-11-05T04:59:06.243Z,100.00
2022-11-05T05:01:34.418Z,100.00
2022-11-05T05:04:02.223Z,100.00
2022-11-05T05:06:30.042Z,100.00
2022-11-05T05:08:59.193Z,100.00
2022-11-05T05:11:27.105Z,100.00
2022-11-05T05:13:54.831Z,100.00
2022-11-05T05:16:23.461Z,100.00
2022-11-05T05:18:52.923Z,100.00
2022-11-05T05:21:39.011Z,100.00
2022-11-05T05:24:09.782Z,100.00
2022-11-05T05:26:37.955Z,100.00
2022-11-05T05:29:06.307Z,100.00
2022-11-05T05:31:34.384Z,100.00
2022-11-05T05:34:02.404Z,100.00
2022-11-05T05:36:30.347Z,100.00
2022-11-05T05:38:58.256Z,100.00
2022-11-05T05:41:27.413Z,100.00
2022-11-05T05:43:55.159Z,100.00
2022-11-05T05:46:23.000Z,100.00
2022-11-05T05:48:52.881Z,100.00
2022-11-05T05:51:20.552Z,100.00
2022-11-05T05:53:48.691Z,100.00
2022-11-05T05:56:19.299Z,100.00
2022-11-05T05:58:48.670Z,100.00
2022-11-05T06:01:19.691Z,100.00
2022-11-05T06:03:48.331Z,100.00
2022-11-05T06:06:19.513Z,100.00
2022-11-05T06:08:47.394Z,100.00
2022-11-05T06:11:15.134Z,100.00
2022-11-05T06:13:43.571Z,100.00
2022-11-05T06:16:12.624Z,100.00
2022-11-05T06:18:40.583Z,100.00
2022-11-05T06:21:09.144Z,100.00
2022-11-05T06:23:37.647Z,100.00
2022-11-05T06:26:06.719Z,100.00
2022-11-05T06:28:34.791Z,100.00
2022-11-05T06:31:02.798Z,100.00
2022-11-05T06:33:32.207Z,100.00
2022-11-05T06:36:00.534Z,100.00
2022-11-05T06:38:29.241Z,100.00
2022-11-05T06:40:58.882Z,100.00
2022-11-05T06:43:26.489Z,100.00
2022-11-05T06:45:55.395Z,100.00
2022-11-05T06:48:25.187Z,100.00
2022-11-05T06:50:55.384Z,100.00
2022-11-05T06:53:23.282Z,100.00
2022-11-05T06:55:51.319Z,100.00
2022-11-05T06:58:18.912Z,100.00
2022-11-05T07:00:46.917Z,100.00
2022-11-05T07:03:15.233Z,100.00
2022-11-05T07:05:44.776Z,100.00
2022-11-05T07:08:13.764Z,100.00
2022-11-05T07:10:41.519Z,100.00
2022-11-05T07:13:09.479Z,100.00
2022-11-05T07:15:37.539Z,100.00
2022-11-05T07:18:07.576Z,100.00
2022-11-05T07:20:36.157Z,100.00
2022-11-05T07:23:04.584Z,100.00
2022-11-05T07:25:34.825Z,100.00
2022-11-05T07:28:03.118Z,100.00
2022-11-05T07:30:31.223Z,100.00
2022-11-05T07:32:59.117Z,100.00
2022-11-05T07:35:27.743Z,100.00
2022-11-05T07:37:56.060Z,100.00
2022-11-05T07:40:24.786Z,100.00
2022-11-05T07:42:54.632Z,100.00
2022-11-05T07:45:22.395Z,100.00
2022-11-05T07:47:51.064Z,100.00
2022-11-05T07:50:19.564Z,100.00
2022-11-05T07:52:47.947Z,100.00
2022-11-05T07:55:16.232Z,100.00
2022-11-05T07:57:45.024Z,100.00
2022-11-05T08:00:15.836Z,100.00
2022-11-05T08:02:44.388Z,100.00
2022-11-05T08:05:12.337Z,100.00
2022-11-05T08:07:40.228Z,100.00
2022-11-05T08:10:09.590Z,100.00
2022-11-05T08:12:37.339Z,100.00
2022-11-05T08:15:05.401Z,100.00
2022-11-05T08:17:34.542Z,100.00
2022-11-05T08:20:02.125Z,100.00
2022-11-05T08:22:30.391Z,100.00
2022-11-05T08:25:00.397Z,99.76
2022-11-05T08:27:31.972Z,98.02
2022-11-05T08:29:59.610Z,97.03
2022-11-05T08:32:27.417Z,96.02
2022-11-05T08:34:56.584Z,94.95
2022-11-05T08:37:24.468Z,97.84
2022-11-05T08:39:52.172Z,100.00
2022-11-05T08:42:20.242Z,100.00
2022-11-05T08:44:48.160Z,100.00
2022-11-05T08:47:15.940Z,100.00
2022-11-05T08:49:43.540Z,100.00
2022-11-05T08:52:12.721Z,100.00
2022-11-05T08:54:40.402Z,100.00
2022-11-05T08:57:08.074Z,99.92
2022-11-05T08:59:35.771Z,94.78
2022-11-05T09:02:03.994Z,93.91
2022-11-05T09:04:31.799Z,78.55
2022-11-05T09:06:59.552Z,79.67
2022-11-05T09:09:28.539Z,70.36
2022-11-05T09:12:13.127Z,61.17
2022-11-05T09:14:41.138Z,61.10
2022-11-05T09:17:14.448Z,62.36
2022-11-05T09:19:42.174Z,61.13
2022-11-05T09:22:12.741Z,67.21
2022-11-05T09:24:42.295Z,72.15
2022-11-05T09:27:11.923Z,70.69
2022-11-05T09:29:39.549Z,80.90
2022-11-05T09:32:07.727Z,86.31
2022-11-05T09:34:35.798Z,81.08
2022-11-05T09:37:04.134Z,83.05
2022-11-05T09:39:31.765Z,85.63
2022-11-05T09:42:03.655Z,88.73
2022-11-05T09:44:34.738Z,89.32
2022-11-05T09:47:04.269Z,92.51
2022-11-05T09:49:35.184Z,95.95
2022-11-05T09:52:04.498Z,98.93
2022-11-05T09:54:33.315Z,94.41
2022-11-05T09:57:03.392Z,91.05
2022-11-05T09:59:36.138Z,80.04
2022-11-05T10:02:05.233Z,61.26
2022-11-05T10:04:34.012Z,59.39
2022-11-05T10:07:02.835Z,52.86
2022-11-05T10:09:32.275Z,47.33
2022-11-05T10:12:04.257Z,49.83
2022-11-05T10:14:34.954Z,53.27
2022-11-05T10:17:11.565Z,51.72
2022-11-05T10:19:44.277Z,54.04
2022-11-05T10:22:13.715Z,53.74
2022-11-05T10:24:43.222Z,48.07
2022-11-05T10:27:16.345Z,53.19
2022-11-05T10:29:45.723Z,55.33
2022-11-05T10:32:16.836Z,49.67
2022-11-05T10:34:45.241Z,46.33
2022-11-05T10:37:13.116Z,40.47
2022-11-05T10:39:43.232Z,35.80
2022-11-05T10:42:20.724Z,36.34
2022-11-05T10:44:54.411Z,40.71
2022-11-05T10:47:33.668Z,34.89
2022-11-05T10:50:02.354Z,34.77
2022-11-05T10:52:33.962Z,33.96
2022-11-05T10:55:02.543Z,30.68
2022-11-05T10:57:32.771Z,31.06
2022-11-05T11:00:19.045Z,32.57
2022-11-05T11:02:49.237Z,29.80
2022-11-05T11:05:21.487Z,28.91
2022-11-05T11:07:57.743Z,33.17
2022-11-05T11:10:28.640Z,31.34
2022-11-05T11:12:58.623Z,33.08
2022-11-05T11:15:28.824Z,36.95
2022-11-05T11:17:58.259Z,33.69
2022-11-05T11:20:27.991Z,35.45
2022-11-05T11:23:10.957Z,34.51
2022-11-05T11:25:41.437Z,43.05
2022-11-05T11:28:15.338Z,49.83
2022-11-05T11:30:48.107Z,51.41
2022-11-05T11:33:22.331Z,42.53
2022-11-05T11:35:50.081Z,37.10
2022-11-05T11:38:19.027Z,33.00
2022-11-05T11:40:47.279Z,38.90
2022-11-05T11:43:17.511Z,40.89
2022-11-05T11:45:46.992Z,43.81
2022-11-05T11:48:19.213Z,55.32
2022-11-05T11:50:47.950Z,60.98
2022-11-05T11:53:25.944Z,48.87
2022-11-05T11:56:01.355Z,44.33
2022-11-05T11:58:43.760Z,47.59
2022-11-05T12:01:31.433Z,38.24
2022-11-05T12:04:07.541Z,30.71
2022-11-05T12:06:38.540Z,28.10
2022-11-05T12:09:12.796Z,28.83
2022-11-05T12:11:43.167Z,31.02
2022-11-05T12:14:18.701Z,35.14
2022-11-05T12:17:01.867Z,33.92
2022-11-05T12:19:37.756Z,41.35
2022-11-05T12:22:11.850Z,45.46
2022-11-05T12:25:01.048Z,53.97
2022-11-05T12:27:47.914Z,62.68
2022-11-05T12:30:16.818Z,64.51
2022-11-05T12:33:02.495Z,63.93
2022-11-05T12:35:45.714Z,67.67
2022-11-05T12:38:21.914Z,65.49
2022-11-05T12:40:58.970Z,64.95
2022-11-05T12:43:31.251Z,64.74
2022-11-05T12:46:03.516Z,68.14
2022-11-05T12:48:55.322Z,68.81
2022-11-05T12:51:31.187Z,69.94
2022-11-05T12:54:05.595Z,68.07
2022-11-05T12:56:37.862Z,67.86
2022-11-05T12:59:12.012Z,65.03
2022-11-05T13:01:42.978Z,65.46
2022-11-05T13:04:15.744Z,66.91
2022-11-05T13:06:48.243Z,64.54
2022-11-05T13:09:19.321Z,63.74
2022-11-05T13:11:51.699Z,65.74
2022-11-05T13:14:22.668Z,68.51
2022-11-05T13:16:51.686Z,67.65
2022-11-05T13:19:22.354Z,66.66
2022-11-05T13:21:54.133Z,65.36
2022-11-05T13:24:23.704Z,63.48
2022-11-05T13:26:54.186Z,63.21
2022-11-05T13:29:24.340Z,60.72
2022-11-05T13:31:54.380Z,56.39
2022-11-05T13:34:22.280Z,55.44
2022-11-05T13:37:11.978Z,56.45
2022-11-05T13:39:46.289Z,57.45
2022-11-05T13:42:45.713Z,57.99
2022-11-05T13:45:25.921Z,58.69
2022-11-05T13:48:02.955Z,59.10
2022-11-05T13:50:46.050Z,59.85
2022-11-05T13:53:26.945Z,59.82
2022-11-05T13:56:02.794Z,60.52
2022-11-05T13:58:50.909Z,58.71
2022-11-05T14:01:27.011Z,59.77
2022-11-05T14:03:56.400Z,62.45
2022-11-05T14:06:26.471Z,63.70
2022-11-05T14:08:58.272Z,63.84
2022-11-05T14:11:28.990Z,63.65
2022-11-05T14:13:58.716Z,62.34
2022-11-05T14:16:27.745Z,62.64
2022-11-05T14:19:15.537Z,61.94
2022-11-05T14:21:48.160Z,62.33
2022-11-05T14:24:25.787Z,63.47
2022-11-05T14:27:12.493Z,63.95
2022-11-05T14:29:43.632Z,67.14
2022-11-05T14:32:25.750Z,71.55
2022-11-05T14:35:01.779Z,75.36
2022-11-05T14:37:31.306Z,79.91
2022-11-05T14:40:04.967Z,82.83
2022-11-05T14:42:32.634Z,85.00
2022-11-05T14:45:03.837Z,85.56
2022-11-05T14:47:33.221Z,85.32
2022-11-05T14:50:05.200Z,86.51
2022-11-05T14:52:33.154Z,87.35
2022-11-05T14:55:02.521Z,87.89
2022-11-05T14:57:49.014Z,86.74
2022-11-05T15:00:32.467Z,85.76
2022-11-05T15:03:01.357Z,85.82
2022-11-05T15:05:39.887Z,84.74
2022-11-05T15:08:28.564Z,85.81
2022-11-05T15:11:03.243Z,84.42
2022-11-05T15:13:32.741Z,84.11
2022-11-05T15:16:00.518Z,83.95
2022-11-05T15:18:31.177Z,84.58
2022-11-05T15:21:00.101Z,84.80
2022-11-05T15:23:30.937Z,85.42
2022-11-05T15:26:04.138Z,85.85
2022-11-05T15:28:34.423Z,88.21
2022-11-05T15:31:03.482Z,88.27
2022-11-05T15:33:32.194Z,86.97
2022-11-05T15:36:11.547Z,86.69
2022-11-05T15:38:56.684Z,87.01
2022-11-05T15:41:34.870Z,87.18
2022-11-05T15:44:02.944Z,86.89
2022-11-05T15:46:31.268Z,87.95
2022-11-05T15:49:00.580Z,88.80
2022-11-05T15:51:28.220Z,89.32
2022-11-05T15:56:49.735Z,91.35
2022-11-05T15:59:20.776Z,93.20
2022-11-05T16:01:49.944Z,94.89
2022-11-05T16:04:20.703Z,95.53
2022-11-05T16:06:51.825Z,96.04
2022-11-05T16:09:24.377Z,97.77
2022-11-05T16:12:20.341Z,100.00
2022-11-05T16:14:58.636Z,100.00
2022-11-05T16:17:27.357Z,100.00
2022-11-05T16:19:55.167Z,100.00
2022-11-05T16:22:23.099Z,100.00
2022-11-05T16:24:51.966Z,100.00
2022-11-05T16:27:22.097Z,100.00
2022-11-05T16:29:51.384Z,100.00
2022-11-05T16:32:25.376Z,100.00
2022-11-05T16:35:01.250Z,100.00
2022-11-05T16:37:30.003Z,100.00
2022-11-05T16:39:58.066Z,100.00
2022-11-05T16:42:40.442Z,100.00
2022-11-05T16:45:12.768Z,100.00
2022-11-05T16:47:40.603Z,100.00
2022-11-05T16:50:26.289Z,100.00
2022-11-05T16:52:55.320Z,100.00
2022-11-05T16:55:23.206Z,100.00
2022-11-05T16:57:54.217Z,100.00
2022-11-05T17:00:22.775Z,100.00
2022-11-05T17:02:50.800Z,100.00
2022-11-05T17:05:20.659Z,100.00
2022-11-05T17:07:48.224Z,100.00
2022-11-05T17:10:16.044Z,100.00
2022-11-05T17:12:44.124Z,100.00
2022-11-05T17:15:21.002Z,100.00
2022-11-05T17:17:48.744Z,100.00
2022-11-05T17:20:23.866Z,100.00
2022-11-05T17:22:51.486Z,100.00
2022-11-05T17:25:19.600Z,100.00
2022-11-05T17:27:47.715Z,100.00
2022-11-05T17:30:19.840Z,100.00
2022-11-05T17:32:47.965Z,100.00
2022-11-05T17:35:15.900Z,100.00
2022-11-05T17:37:43.561Z,100.00
2022-11-05T17:40:14.045Z,100.00
2022-11-05T17:42:42.039Z,100.00
2022-11-05T17:45:10.413Z,100.00
2022-11-05T17:47:39.529Z,100.00
2022-11-05T17:50:08.377Z,100.00
2022-11-05T17:52:37.130Z,100.00
2022-11-05T17:55:04.881Z,100.00
2022-11-05T17:57:33.377Z,100.00
2022-11-05T18:00:01.044Z,100.00
2022-11-05T18:02:29.724Z,100.00
2022-11-05T18:04:59.038Z,100.00
2022-11-05T18:07:26.687Z,100.00
2022-11-05T18:09:54.285Z,100.00
2022-11-05T18:12:22.369Z,100.00
2022-11-05T18:14:49.965Z,100.00
2022-11-05T18:17:17.660Z,100.00
2022-11-05T18:19:45.387Z,100.00
2022-11-05T18:22:16.339Z,100.00
2022-11-05T18:24:44.135Z,100.00
2022-11-05T18:27:11.913Z,100.00
2022-11-05T18:29:40.058Z,100.00
2022-11-05T18:32:07.995Z,100.00
2022-11-05T18:34:36.410Z,100.00
2022-11-05T18:37:04.454Z,100.00
2022-11-05T18:39:33.627Z,100.00
2022-11-05T18:42:01.436Z,100.00
2022-11-05T18:44:29.324Z,100.00
2022-11-05T18:46:58.659Z,100.00
2022-11-05T18:49:26.673Z,100.00
2022-11-05T18:51:54.713Z,100.00
2022-11-05T18:54:22.333Z,100.00
2022-11-05T18:56:51.372Z,100.00
2022-11-05T18:59:38.577Z,100.00
2022-11-05T19:02:08.330Z,100.00
2022-11-05T19:04:36.343Z,100.00
2022-11-05T19:07:05.403Z,100.00
2022-11-05T19:09:33.784Z,100.00
2022-11-05T19:12:03.231Z,100.00
2022-11-05T19:14:31.413Z,100.00
2022-11-05T19:16:59.679Z,100.00
2022-11-05T19:19:28.515Z,100.00
2022-11-05T19:21:56.477Z,100.00
2022-11-05T19:24:24.588Z,100.00
2022-11-05T19:26:52.897Z,100.00
2022-11-05T19:29:22.149Z,100.00
2022-11-05T19:31:50.051Z,100.00
2022-11-05T19:34:19.085Z,100.00
2022-11-05T19:36:46.857Z,100.00
2022-11-05T19:39:15.861Z,100.00
2022-11-05T19:41:43.697Z,100.00
2022-11-05T19:44:11.661Z,100.00
2022-11-05T19:46:41.640Z,100.00
2022-11-05T19:49:12.980Z,100.00
2022-11-05T19:51:40.749Z,100.00
2022-11-05T19:54:09.222Z,100.00
2022-11-05T19:56:38.496Z,100.00
2022-11-05T19:59:07.161Z,100.00
2022-11-05T20:01:35.787Z,100.00
2022-11-05T20:04:06.309Z,100.00
2022-11-05T20:06:40.296Z,100.00
2022-11-05T20:09:27.427Z,100.00
2022-11-05T20:11:56.636Z,100.00
2022-11-05T20:14:25.470Z,100.00
2022-11-05T20:16:53.981Z,100.00
2022-11-05T20:19:23.995Z,100.00
2022-11-05T20:21:51.869Z,100.00
2022-11-05T20:24:24.651Z,100.00
2022-11-05T20:26:53.552Z,100.00
2022-11-05T20:29:21.999Z,100.00
2022-11-05T20:31:50.172Z,100.00
2022-11-05T20:34:18.232Z,100.00
2022-11-05T20:36:48.318Z,100.00
2022-11-05T20:39:16.986Z,100.00
2022-11-05T20:41:45.006Z,100.00
2022-11-05T20:44:13.142Z,100.00
2022-11-05T20:46:41.176Z,100.00
2022-11-05T20:49:09.452Z,100.00
2022-11-05T20:51:37.213Z,100.00
2022-11-05T20:54:06.496Z,100.00
2022-11-05T20:56:35.478Z,100.00
2022-11-05T20:59:03.657Z,100.00
2022-11-05T21:01:32.282Z,100.00
2022-11-05T21:04:00.725Z,100.00
2022-11-05T21:06:28.413Z,100.00
2022-11-05T21:08:56.936Z,100.00
2022-11-05T21:11:26.147Z,100.00
2022-11-05T21:13:53.856Z,100.00
2022-11-05T21:16:22.054Z,100.00
2022-11-05T21:18:50.138Z,100.00
2022-11-05T21:21:23.350Z,100.00
2022-11-05T21:23:51.332Z,100.00
2022-11-05T21:26:19.246Z,100.00
2022-11-05T21:28:49.417Z,100.00
2022-11-05T21:31:17.087Z,100.00
2022-11-05T21:33:44.771Z,100.00
2022-11-05T21:36:13.753Z,100.00
2022-11-05T21:38:42.254Z,100.00
2022-11-05T21:41:12.453Z,100.00
2022-11-05T21:43:41.909Z,100.00
2022-11-05T21:46:13.563Z,100.00
2022-11-05T21:48:41.702Z,100.00
2022-11-05T21:51:28.446Z,100.00
2022-11-05T21:54:13.962Z,100.00
2022-11-05T21:56:59.218Z,100.00
2022-11-05T21:59:44.930Z,100.00
2022-11-05T22:02:15.398Z,100.00
2022-11-05T22:04:44.361Z,100.00
2022-11-05T22:07:13.437Z,100.00
2022-11-05T22:09:41.880Z,100.00
2022-11-05T22:12:10.069Z,100.00
2022-11-05T22:14:38.780Z,100.00
2022-11-05T22:17:07.086Z,100.00
2022-11-05T22:19:37.370Z,100.00
2022-11-05T22:22:06.315Z,100.00
2022-11-05T22:24:38.253Z,100.00
2022-11-05T22:27:08.432Z,100.00
2022-11-05T22:29:36.965Z,100.00
2022-11-05T22:32:05.103Z,100.00
2022-11-05T22:34:33.392Z,100.00
2022-11-05T22:37:03.928Z,100.00
2022-11-05T22:39:31.693Z,100.00
2022-11-05T22:42:02.043Z,100.00
2022-11-05T22:44:33.623Z,100.00
2022-11-05T22:47:02.054Z,100.00
2022-11-05T22:49:30.529Z,100.00
2022-11-05T22:51:59.009Z,100.00
2022-11-05T22:54:33.871Z,100.00
2022-11-05T22:57:05.151Z,100.00
2022-11-05T22:59:33.396Z,100.00
2022-11-05T23:02:05.295Z,100.00
2022-11-05T23:04:36.894Z,100.00
2022-11-05T23:07:27.291Z,100.00
2022-11-05T23:10:14.777Z,100.00
2022-11-05T23:12:44.365Z,100.00
2022-11-05T23:15:34.756Z,100.00
2022-11-05T23:18:20.503Z,100.00
2022-11-05T23:21:05.441Z,100.00
2022-11-05T23:23:50.783Z,100.00
2022-11-05T23:26:37.688Z,100.00
2022-11-05T23:29:05.618Z,100.00
2022-11-05T23:31:52.219Z,100.00
2022-11-05T23:34:19.986Z,100.00
2022-11-05T23:37:05.493Z,100.00
2022-11-05T23:39:35.779Z,100.00
2022-11-05T23:42:26.630Z,100.00
2022-11-05T23:45:14.627Z,100.00
2022-11-05T23:48:00.233Z,100.00
2022-11-05T23:50:28.461Z,100.00
2022-11-05T23:52:56.322Z,100.00
2022-11-05T23:55:24.678Z,100.00
2022-11-05T23:57:53.907Z,100.00
